Flight Track Log - Related Links

Times and Time Zones

All times are in EDT time to prevent confusion due to time zone crossing. See the ANZ730 flight status page for this flight to view local times or setup timezone preferences in your user account.

Time Position Orientation Groundspeed Altitude Reporting Facility
EDT Latitude Longitude Course Direction KTS MPH feet Rate Location/Type
Sun 05:10:52 AM -27.4030 153.1120 28° Northeast 7 8  Level FlightAware ADS-B
Sun 05:11:32 AM -27.4020 153.1140 61° Northeast 10 12 171 Level FlightAware ADS-B
Sun 05:11:52 AM -27.4020 153.1150 90° East 11 13 205 Level FlightAware ADS-B
Sun 05:12:42 AM -27.4030 153.1170 119° Southeast 12 14 227 Level FlightAware ADS-B
Sun 05:13:52 AM -27.4030 153.1180 90° East 4 5 311 Level FlightAware ADS-B
Sun 05:14:27 AM -27.3910 153.1250 27° Northeast 140 161 646 Level FlightAware ADS-B
Sun 05:14:57 AM -27.3700 153.1370 27° Northeast 165 190 700 1,855 Climbing FlightAware ADS-B
Sun 05:15:22 AM -27.3540 153.1490 34° Northeast 167 192 1,700 1,680 Climbing FlightAware ADS-B
Sun 05:15:47 AM -27.3390 153.1660 45° Northeast 201 231 2,100 1,286 Climbing FlightAware ADS-B
Sun 05:16:04 AM -27.3233 153.1822 45° Northeast 204 235 2,600 1,600 Climbing Aus ATC (RADAR)
Sun 05:16:17 AM -27.3180 153.1900 45° Northeast 241 277 2,900 2,087 Climbing FlightAware ADS-B
Sun 05:16:27 AM -27.3140 153.2040 72° East 236 272 3,400 3,400 Climbing FlightAware ADS-B
Sun 05:16:47 AM -27.3190 153.2240 106° East 227 261 4,600 3,200 Climbing FlightAware ADS-B
Sun 05:16:57 AM -27.3280 153.2330 138° Southeast 231 266 5,000 2,160 Climbing FlightAware ADS-B
Sun 05:17:12 AM -27.3440 153.2370 167° South 239 275 5,500 1,800 Climbing FlightAware ADS-B
Sun 05:17:27 AM -27.3620 153.2410 169° South 260 299 5,900 1,800 Climbing FlightAware ADS-B
Sun 05:17:42 AM -27.3740 153.2500 146° Southeast 272 313 6,400 3,000 Climbing FlightAware ADS-B
Sun 05:18:07 AM -27.3970 153.2790 132° Southeast 271 312 7,900 3,273 Climbing FlightAware ADS-B
Sun 05:18:37 AM -27.4210 153.3120 129° Southeast 277 319 9,400 2,314 Climbing FlightAware ADS-B
Sun 05:19:17 AM -27.4590 153.3560 134° Southeast 310 357 10,600 1,742 Climbing FlightAware ADS-B
Sun 05:19:39 AM -27.4868 153.3846 134° Southeast 314 361 11,200 1,200 Climbing Aus ATC (RADAR)
Sun 05:20:02 AM -27.5110 153.4110 134° Southeast 356 410 11,500 1,714 Climbing FlightAware ADS-B
Sun 05:20:42 AM -27.5580 153.4620 136° Southeast 367 422 13,000 2,535 Climbing FlightAware ADS-B
Sun 05:21:13 AM -27.6025 153.5112 136° Southeast 373 429 14,500 1,950 Climbing Aus ATC (RADAR)
Sun 05:21:22 AM -27.6030 153.5120 136° Southeast 374 430 14,300 2,571 Descending FlightAware ADS-B
Sun 05:21:48 AM -27.6458 153.5584 136° Southeast 372 428 16,000 2,533 Climbing Aus ATC (RADAR)
Sun 05:22:07 AM -27.6650 153.5780 136° Southeast 379 436 16,200 1,964 Climbing FlightAware ADS-B
Sun 05:22:43 AM -27.7154 153.6339 136° Southeast 378 435 17,800 2,100 Climbing Aus ATC (RADAR)
Sun 05:22:47 AM -27.7190 153.6370 136° Southeast 389 448 17,600 1,650 Descending FlightAware ADS-B
Sun 05:23:23 AM -27.7680 153.6917 136° Southeast 394 453 18,900 1,800 Climbing Aus ATC (RADAR)
Sun 05:23:27 AM -27.7700 153.6930 136° Southeast 398 458 18,800 1,347 Descending FlightAware ADS-B
Sun 05:24:12 AM -27.8300 153.7610 135° Southeast 409 471 20,000 1,835 Climbing FlightAware ADS-B
Sun 05:24:52 AM -27.8760 153.8300 127° Southeast 410 472 21,400 2,250 Climbing FlightAware ADS-B
Sun 05:25:08 AM -27.8930 153.8639 127° Southeast 410 472 22,100 1,935 Climbing Aus ATC (RADAR)
Sun 05:25:23 AM -27.9061 153.8928 117° Southeast 411 473 22,400 621 Climbing Aus ATC (RADAR)
Sun 05:25:37 AM -27.9150 153.9160 117° Southeast 421 484 22,400 889 Level FlightAware ADS-B
Sun 05:26:17 AM -27.9490 153.9980 115° Southeast 430 495 23,200 1,475 Climbing FlightAware ADS-B
Sun 05:26:38 AM -27.9675 154.0453 115° Southeast 423 487 23,900 1,333 Climbing Aus ATC (RADAR)
Sun 05:27:02 AM -27.9870 154.0940 115° Southeast 438 504 24,200 1,219 Climbing FlightAware ADS-B
Sun 05:27:42 AM -28.0210 154.1770 115° Southeast 439 505 25,200 1,500 Climbing FlightAware ADS-B
Sun 05:28:02 AM -28.0400 154.2233 115° Southeast 434 499 25,700 900 Climbing Aus ATC (RADAR)
Sun 05:28:22 AM -28.0540 154.2570 115° Southeast 449 517 25,800 1,029 Climbing FlightAware ADS-B
Sun 05:28:37 AM -28.0698 154.2974 115° Southeast 438 504 26,300 900 Climbing Aus ATC (RADAR)
Sun 05:29:22 AM -28.1040 154.3820 115° Southeast 461 531 26,700 1,029 Climbing FlightAware ADS-B
Sun 05:29:47 AM -28.1323 154.4513 115° Southeast 456 525 27,500 1,200 Climbing Aus ATC (RADAR)
Sun 05:30:02 AM -28.1430 154.4780 115° Southeast 468 539 27,500 857 Level FlightAware ADS-B
Sun 05:30:22 AM -28.1631 154.5293 115° Southeast 459 528 28,000 873 Climbing Aus ATC (RADAR)
Sun 05:30:57 AM -28.1890 154.5920 115° Southeast 476 548 28,300 1,200 Climbing FlightAware ADS-B
Sun 05:31:22 AM -28.2182 154.6656 115° Southeast 469 540 29,200 1,371 Climbing Aus ATC (RADAR)
Sun 05:31:32 AM -28.2230 154.6790 115° Southeast 477 549 29,100 1,200 Descending FlightAware ADS-B
Sun 05:31:57 AM -28.2501 154.7453 115° Southeast 469 540 29,900 1,200 Climbing Aus ATC (RADAR)
Sun 05:32:22 AM -28.2680 154.7900 115° Southeast 478 550 30,100 1,200 Climbing FlightAware ADS-B
Sun 05:32:57 AM -28.3048 154.8820 115° Southeast 468 539 31,100 1,200 Climbing Aus ATC (RADAR)
Sun 05:33:02 AM -28.3060 154.8850 115° Southeast 478 550 30,900 1,029 Descending FlightAware ADS-B
Sun 05:33:32 AM -28.3366 154.9621 115° Southeast 469 540 31,700 900 Climbing Aus ATC (RADAR)
Sun 05:33:42 AM -28.3380 154.9670 115° Southeast 479 551 31,500 923 Descending FlightAware ADS-B
Sun 05:34:37 AM -28.3910 155.1000 114° Southeast 478 550 32,700 1,425 Climbing FlightAware ADS-B
Sun 05:35:02 AM -28.4180 155.1688 114° Southeast 467 537 33,400 900 Climbing Aus ATC (RADAR)
Sun 05:35:17 AM -28.4280 155.1950 114° Southeast 480 552 33,300 857 Descending FlightAware ADS-B
Sun 05:35:37 AM -28.4498 155.2494 114° Southeast 470 541 33,900 1,200 Climbing Aus ATC (RADAR)
Sun 05:35:57 AM -28.4670 155.2930 114° Southeast 479 551 34,100 1,000 Climbing FlightAware ADS-B
Sun 05:36:37 AM -28.5040 155.3868 114° Southeast 468 539 34,900 800 Climbing Aus ATC (RADAR)
Sun 05:36:42 AM -28.5060 155.3930 114° Southeast 481 554 34,700 686 Descending FlightAware ADS-B
Sun 05:37:12 AM -28.5353 155.4680 114° Southeast 469 540 35,300 600 Climbing Aus ATC (RADAR)
Sun 05:37:32 AM -28.5480 155.5010 114° Southeast 486 559 35,200 764 Descending FlightAware ADS-B
Sun 05:38:07 AM -28.5868 155.5955 114° Southeast 472 543 36,000 800 Climbing Aus ATC (RADAR)
Sun 05:38:17 AM -28.5930 155.6040 114° Southeast 474 545 35,800 882 Descending FlightAware ADS-B
Sun 05:38:41 AM -28.6275 155.6701 114° Southeast 465 535 36,500 900 Climbing Aus ATC (RADAR)
Sun 05:38:57 AM -28.6380 155.6870 114° Southeast 472 543 36,400 738 Descending FlightAware ADS-B
Sun 05:39:46 AM -28.7015 155.8084 114° Southeast 460 529 37,300 600 Climbing Aus ATC (RADAR)
Sun 05:39:57 AM -28.7100 155.8230 114° Southeast 471 542 37,000 -120 Descending FlightAware ADS-B
Sun 05:40:36 AM -28.7579 155.9153 114° Southeast 462 532 37,200  Climbing Aus ATC (RADAR)
Sun 05:40:52 AM -28.7680 155.9330 114° Southeast 475 547 37,000  Descending FlightAware ADS-B
Sun 05:41:31 AM -28.8214 156.0346 114° Southeast 468 539 37,200  Climbing Aus ATC (RADAR)
Sun 05:41:37 AM -28.8220 156.0340 114° Southeast 480 552 37,000 171 Descending FlightAware ADS-B
Sun 05:42:06 AM -28.8622 156.1110 114° Southeast 471 542 37,300  Climbing Aus ATC (RADAR)
Sun 05:42:17 AM -28.8720 156.1280 114° Southeast 482 555 37,000 -214 Descending FlightAware ADS-B
Sun 05:43:02 AM -28.9200 156.2200 121° Southeast 480 552 37,100 71 Climbing FlightAware ADS-B
Sun 05:43:42 AM -28.9680 156.3110 121° Southeast 478 550 37,100 -75 Level FlightAware ADS-B
Sun 05:44:22 AM -29.0160 156.4020 121° Southeast 477 549 37,000 94 Descending FlightAware ADS-B
Sun 05:44:46 AM -29.0461 156.4604 121° Southeast 466 536 37,200  Climbing Aus ATC (RADAR)
Sun 05:45:07 AM -29.0500 156.4690 121° Southeast 477 549 37,000 -240 Descending FlightAware ADS-B
Sun 05:45:36 AM -29.1029 156.5685 121° Southeast 463 533 37,000  Level Aus ATC (RADAR)
Sun 05:45:47 AM -29.1100 156.5820 121° Southeast 477 549 37,000  Level FlightAware ADS-B
Sun 05:46:32 AM -29.1580 156.6740 121° Southeast 474 545 37,000  Level FlightAware ADS-B
Sun 05:47:06 AM -29.2045 156.7615 121° Southeast 459 528 37,000  Level Aus ATC (RADAR)
Sun 05:47:07 AM -29.1910 156.7410 121° Southeast 474 545 37,000  Level FlightAware ADS-B
Sun 05:47:47 AM -29.2460 156.8440 121° Southeast 470 541 37,000  Level FlightAware ADS-B
Sun 05:48:27 AM -29.2890 156.9270 121° Southeast 469 540 37,000  Level FlightAware ADS-B
Sun 05:49:27 AM -29.3500 157.0470 120° Southeast 464 534 37,000  Level FlightAware ADS-B
Sun 05:50:07 AM -29.3850 157.1200 119° Southeast 464 534 37,000  Level FlightAware ADS-B
Sun 05:50:47 AM -29.4200 157.1930 119° Southeast 464 534 37,000  Level FlightAware ADS-B
Sun 05:51:27 AM -29.4560 157.2670 119° Southeast 464 534 37,000  Level FlightAware ADS-B
Sun 05:52:07 AM -29.4910 157.3400 119° Southeast 464 534 37,000 286 Level FlightAware ADS-B
Sun 05:52:30 AM -29.5607 157.4545 119° Southeast 450 518 37,300 474 Climbing Aus ATC (RADAR)
Sun 05:52:45 AM -29.5780 157.4862 122° Southeast 449 517 37,300 -1,059 Level Aus ATC (RADAR)
Sun 05:52:47 AM -29.5260 157.4130 122° Southeast 464 534 37,000  Descending FlightAware ADS-B
Sun 05:53:20 AM -29.6167 157.5605 122° Southeast 449 517 37,300  Climbing Aus ATC (RADAR)
Sun 05:53:37 AM -29.5710 157.5050 122° Southeast 464 534 37,000 -316 Descending FlightAware ADS-B
Sun 05:54:17 AM -29.6060 157.5780 119° Southeast 464 534 37,000 231 Level FlightAware ADS-B
Sun 05:54:55 AM -29.7221 157.7626 119° Southeast 450 518 37,300 194 Climbing Aus ATC (RADAR)
Sun 05:55:50 AM -29.7832 157.8798 121° Southeast 449 517 37,300  Level Aus ATC (RADAR)
Sun 05:56:25 AM -29.8242 157.9524 123° Southeast 451 519 37,300 -247 Level Aus ATC (RADAR)
Sun 06:01:49 AM -30.1795 158.6645 121° Southeast 37,000 -248 Descending Aus ATC (Calculated)
Sun 06:03:00 AM -30.2482 158.8039 120° Southeast  Level FlightAware Approximate
Sun 06:04:00 AM -30.3061 158.9219 120° Southeast  Level FlightAware Approximate
Sun 06:05:00 AM -30.3639 159.0401 120° Southeast  Level FlightAware Approximate
Sun 06:06:00 AM -30.4216 159.1584 120° Southeast  Level FlightAware Approximate
Sun 06:06:49 AM -30.5373 159.3967 120° Southeast 37,000  Level Aus ATC (Calculated)
Sun 06:07:00 AM -30.4792 159.2768 119° Southeast  Level FlightAware Approximate
Sun 06:08:00 AM -30.6052 159.5372 119° Southeast  Level FlightAware Approximate
Sun 06:09:00 AM -30.6624 159.6560 119° Southeast  Level FlightAware Approximate
Sun 06:10:00 AM -30.7196 159.7750 119° Southeast  Level FlightAware Approximate
Sun 06:11:00 AM -30.7766 159.8942 119° Southeast  Level FlightAware Approximate
Sun 06:11:48 AM -30.8834 160.1184 120° Southeast 37,000  Level Aus ATC (Calculated)
Sun 06:12:00 AM -30.8335 160.0135 119° Southeast  Level FlightAware Approximate
Sun 06:13:00 AM -30.9515 160.2619 119° Southeast  Level FlightAware Approximate
Sun 06:14:00 AM -31.0081 160.3817 119° Southeast  Level FlightAware Approximate
Sun 06:15:00 AM -31.0645 160.5015 119° Southeast  Level FlightAware Approximate
Sun 06:16:00 AM -31.1209 160.6215 119° Southeast  Level FlightAware Approximate
Sun 06:16:20 AM -31.1772 160.7419 120° Southeast 37,000  Level Aus ATC (Calculated)
Sun 06:17:04 AM -31.2414 160.8794 120° Southeast 37,000 -290 Level Aus ATC (Calculated)
Sun 06:18:00 AM -31.2707 160.9425 119° Southeast  Level FlightAware Approximate
Sun 06:19:00 AM -31.3495 161.1124 119° Southeast  Level FlightAware Approximate
Sun 06:19:04 AM -31.3633 161.1421 119° Southeast 37,000  Level Aus ATC (Calculated)
Sun 06:21:00 AM -31.4710 161.3757 118° Southeast  Level FlightAware Approximate
Sun 06:21:47 AM -31.5489 161.5457 119° Southeast 37,000  Level Aus ATC (Calculated)
Sun 06:23:00 AM -31.6163 161.6932 118° Southeast  Level FlightAware Approximate
Sun 06:24:00 AM -31.6716 161.8147 118° Southeast  Level FlightAware Approximate
Sun 06:25:00 AM -31.7267 161.9362 118° Southeast  Level FlightAware Approximate
Sun 06:25:12 AM -31.7546 161.9980 119° Southeast 37,000  Level Aus ATC (Calculated)
Sun 06:27:00 AM -31.8534 162.2173 118° Southeast  Level FlightAware Approximate
Sun 06:28:00 AM -31.9082 162.3394 118° Southeast  Level FlightAware Approximate
Sun 06:28:12 AM -31.9510 162.4352 119° Southeast 37,000  Level Aus ATC (Calculated)
Sun 06:29:52 AM -32.0765 162.7172 119° Southeast 37,000 -326 Level Aus ATC (Calculated)
Sun 06:30:00 AM -32.0491 162.6555 118° Southeast  Level FlightAware Approximate
Sun 06:31:00 AM -32.1380 162.8562 118° Southeast  Level FlightAware Approximate
Sun 06:32:00 AM -32.1922 162.9790 118° Southeast  Level FlightAware Approximate
Sun 06:33:00 AM -32.2462 163.1020 117° Southeast  Level FlightAware Approximate
Sun 06:34:00 AM -32.1922 162.9790 297° West  Level FlightAware Approximate
Sun 06:35:00 AM -32.2462 163.1020 117° Southeast  Level FlightAware Approximate
Sun 06:36:00 AM -32.1922 162.9790 297° West  Level FlightAware Approximate
Sun 06:37:00 AM -32.2462 163.1020 117° Southeast  Level FlightAware Approximate
Sun 06:38:00 AM -32.1922 162.9790 297° West  Level FlightAware Approximate
Sun 06:39:00 AM -32.2462 163.1020 117° Southeast  Level FlightAware Approximate
Sun 06:40:00 AM -32.1922 162.9790 297° West  Level FlightAware Approximate
Sun 06:41:00 AM -32.2462 163.1020 117° Southeast  Level FlightAware Approximate
Sun 06:42:00 AM -32.1922 162.9790 297° West  Level FlightAware Approximate
Sun 06:43:00 AM -32.2462 163.1020 117° Southeast  Level FlightAware Approximate
Sun 06:44:00 AM -32.1922 162.9790 297° West  Level FlightAware Approximate
Sun 06:45:00 AM -32.2501 163.0995 119° Southeast  Level Estimated
Sun 06:46:00 AM -32.3064 163.2211 119° Southeast  Level FlightAware Approximate
Sun 06:47:00 AM -32.3626 163.3428 119° Southeast  Level FlightAware Approximate
Sun 06:48:00 AM -32.4187 163.4647 119° Southeast  Level FlightAware Approximate
Sun 06:49:00 AM -32.4746 163.5868 119° Southeast  Level FlightAware Approximate
Sun 06:50:00 AM -32.5304 163.7090 118° Southeast  Level FlightAware Approximate
Sun 06:51:00 AM -32.5862 163.8313 118° Southeast  Level FlightAware Approximate
Sun 06:52:00 AM -32.6418 163.9538 118° Southeast  Level FlightAware Approximate
Sun 06:53:00 AM -32.6973 164.0765 118° Southeast  Level FlightAware Approximate
Sun 06:54:00 AM -32.7526 164.1993 118° Southeast  Level FlightAware Approximate
Sun 06:55:00 AM -32.8079 164.3222 118° Southeast  Level FlightAware Approximate
Sun 06:56:00 AM -32.8630 164.4453 118° Southeast  Level FlightAware Approximate
Sun 06:57:00 AM -32.9180 164.5686 118° Southeast  Level FlightAware Approximate
Sun 06:58:00 AM -32.9729 164.6920 118° Southeast  Level FlightAware Approximate
Sun 06:59:00 AM -33.0277 164.8156 118° Southeast  Level FlightAware Approximate
Sun 07:00:00 AM -33.0823 164.9393 118° Southeast  Level FlightAware Approximate
Sun 07:01:00 AM -33.1368 165.0632 118° Southeast  Level FlightAware Approximate
Sun 07:02:00 AM -33.1912 165.1872 118° Southeast  Level FlightAware Approximate
Sun 07:03:00 AM -33.2455 165.3114 118° Southeast  Level FlightAware Approximate
Sun 07:04:00 AM -33.2996 165.4357 118° Southeast  Level FlightAware Approximate
Sun 07:05:00 AM -33.3537 165.5602 117° Southeast  Level FlightAware Approximate
Sun 07:06:00 AM -33.4076 165.6849 117° Southeast  Level FlightAware Approximate
Sun 07:07:00 AM -33.4613 165.8097 117° Southeast  Level FlightAware Approximate
Sun 07:08:00 AM -33.5150 165.9346 117° Southeast  Level FlightAware Approximate
Sun 07:09:00 AM -33.5685 166.0598 117° Southeast  Level FlightAware Approximate
Sun 07:10:00 AM -33.6219 166.1850 117° Southeast  Level FlightAware Approximate
Sun 07:11:00 AM -33.6752 166.3105 117° Southeast  Level FlightAware Approximate
Sun 07:12:00 AM -33.7283 166.4360 117° Southeast  Level FlightAware Approximate
Sun 07:13:00 AM -33.7814 166.5618 117° Southeast  Level FlightAware Approximate
Sun 07:14:00 AM -33.8343 166.6877 117° Southeast  Level FlightAware Approximate
Sun 07:15:00 AM -33.8870 166.8137 117° Southeast  Level FlightAware Approximate
Sun 07:16:00 AM -33.9396 166.9399 117° Southeast  Level FlightAware Approximate
Sun 07:17:00 AM -33.9921 167.0663 117° Southeast  Level FlightAware Approximate
Sun 07:18:00 AM -34.0445 167.1928 117° Southeast  Level FlightAware Approximate
Sun 07:19:00 AM -34.0968 167.3194 117° Southeast  Level FlightAware Approximate
Sun 07:20:00 AM -34.1489 167.4462 116° Southeast  Level FlightAware Approximate
Sun 07:21:00 AM -34.2009 167.5732 116° Southeast  Level FlightAware Approximate
Sun 07:22:00 AM -34.2527 167.7004 116° Southeast  Level FlightAware Approximate
Sun 07:23:00 AM -34.3045 167.8277 116° Southeast  Level FlightAware Approximate
Sun 07:24:00 AM -34.3560 167.9551 116° Southeast  Level FlightAware Approximate
Sun 07:25:00 AM -34.4075 168.0827 116° Southeast  Level FlightAware Approximate
Sun 07:26:00 AM -34.4588 168.2105 116° Southeast  Level FlightAware Approximate
Sun 07:27:00 AM -34.5100 168.3384 116° Southeast  Level FlightAware Approximate
Sun 07:28:00 AM -34.5611 168.4665 116° Southeast  Level FlightAware Approximate
Sun 07:29:00 AM -34.6120 168.5947 116° Southeast  Level FlightAware Approximate
Sun 07:30:00 AM -34.6628 168.7231 116° Southeast  Level FlightAware Approximate
Sun 07:31:00 AM -34.7135 168.8517 116° Southeast  Level FlightAware Approximate
Sun 07:32:00 AM -34.7640 168.9804 116° Southeast  Level FlightAware Approximate
Sun 07:33:00 AM -34.8144 169.1092 115° Southeast  Level FlightAware Approximate
Sun 07:34:00 AM -34.8646 169.2383 115° Southeast  Level FlightAware Approximate
Sun 07:35:00 AM -34.9147 169.3674 115° Southeast  Level FlightAware Approximate
Sun 07:36:00 AM -34.9647 169.4968 115° Southeast  Level FlightAware Approximate
Sun 07:37:00 AM -35.0145 169.6263 115° Southeast  Level FlightAware Approximate
Sun 07:38:00 AM -35.0643 169.7559 115° Southeast  Level FlightAware Approximate
Sun 07:39:00 AM -35.1138 169.8857 115° Southeast  Level FlightAware Approximate
Sun 07:40:00 AM -35.1632 170.0157 115° Southeast  Level FlightAware Approximate
Sun 07:41:00 AM -35.2125 170.1458 115° Southeast  Level FlightAware Approximate
Sun 07:42:00 AM -35.2617 170.2761 115° Southeast  Level FlightAware Approximate
Sun 07:43:00 AM -35.3107 170.4066 115° Southeast  Level FlightAware Approximate
Sun 07:44:00 AM -35.3595 170.5372 115° Southeast  Level FlightAware Approximate
Sun 07:45:00 AM -35.4083 170.6679 115° Southeast  Level FlightAware Approximate
Sun 07:46:00 AM -35.4568 170.7988 115° Southeast  Level FlightAware Approximate
Sun 07:47:00 AM -35.5053 170.9299 114° Southeast  Level FlightAware Approximate
Sun 07:48:00 AM -35.5536 171.0611 114° Southeast  Level FlightAware Approximate
Sun 07:49:00 AM -35.6065 171.1897 117° Southeast  Level Estimated
Sun 07:50:00 AM -35.6594 171.3184 117° Southeast  Level FlightAware Approximate
Sun 07:51:00 AM -35.7121 171.4473 117° Southeast  Level FlightAware Approximate
Sun 07:52:00 AM -35.7646 171.5764 117° Southeast  Level FlightAware Approximate
Sun 07:53:00 AM -35.8171 171.7056 117° Southeast  Level FlightAware Approximate
Sun 07:54:00 AM -35.8694 171.8351 117° Southeast  Level FlightAware Approximate
Sun 07:55:00 AM -35.9215 171.9646 116° Southeast  Level FlightAware Approximate
Sun 07:56:00 AM -35.9735 172.0944 116° Southeast  Level FlightAware Approximate
Sun 07:57:00 AM -36.0254 172.2243 116° Southeast  Level FlightAware Approximate
Sun 07:58:00 AM -36.0771 172.3544 116° Southeast  Level FlightAware Approximate
Sun 07:59:00 AM -36.1287 172.4847 116° Southeast  Level FlightAware Approximate
Sun 08:00:00 AM -36.1802 172.6151 116° Southeast  Level FlightAware Approximate
Sun 08:01:00 AM -36.2315 172.7457 116° Southeast  Level FlightAware Approximate
Sun 08:02:00 AM -36.2826 172.8765 116° Southeast  Level FlightAware Approximate
Sun 08:03:00 AM -36.3336 173.0075 116° Southeast  Level FlightAware Approximate
Sun 08:04:00 AM -36.3845 173.1386 116° Southeast  Level FlightAware Approximate
Sun 08:05:00 AM -36.4353 173.2699 116° Southeast  Level FlightAware Approximate
Sun 08:05:07 AM -36.7770 174.7300 116° Southeast 302 348 5,400  Level FlightAware ADS-B
Sun 08:05:32 AM -36.7880 174.7640 112° Southeast 286 329 5,200 -500 Descending FlightAware ADS-B
Sun 08:06:07 AM -36.8040 174.8180 110° East 273 314 4,900 -764 Descending FlightAware ADS-B
Sun 08:06:27 AM -36.8140 174.8490 112° Southeast 274 315 4,500 -1,200 Descending FlightAware ADS-B
Sun 08:06:42 AM -36.8200 174.8680 112° Southeast 271 312 4,200 -840 Descending FlightAware ADS-B
Sun 08:07:17 AM -36.8370 174.9210 112° Southeast 274 315 3,800 -400 Descending FlightAware ADS-B
Sun 08:07:42 AM -36.8490 174.9590 112° Southeast 248 285 3,800  Level FlightAware ADS-B
Sun 08:08:12 AM -36.8620 174.9990 112° Southeast 246 283 3,800 -267 Level FlightAware ADS-B
Sun 08:08:27 AM -36.8750 175.0110 144° Southeast 234 269 3,600 -900 Descending FlightAware ADS-B
Sun 08:08:52 AM -36.8990 175.0210 162° South 227 261 3,200 -873 Descending FlightAware ADS-B
Sun 08:09:22 AM -36.9310 175.0310 166° South 213 245 2,800 -533 Descending FlightAware ADS-B
Sun 08:09:37 AM -36.9400 175.0270 200° South 188 216 2,800  Level FlightAware ADS-B
Sun 08:09:47 AM -36.9470 175.0170 229° Southwest 177 204 2,800  Level FlightAware ADS-B
Sun 08:10:17 AM -36.9560 174.9870 249° West 174 200 2,800 -327 Level FlightAware ADS-B
Sun 08:10:42 AM -36.9620 174.9660 250° West 165 190 2,500 -857 Descending FlightAware ADS-B
Sun 08:11:27 AM -36.9730 174.9270 251° West 155 178 1,800 -857 Descending FlightAware ADS-B
Sun 08:11:52 AM -36.9790 174.9060 250° West 136 157 1,500 -800 Descending FlightAware ADS-B
Sun 08:12:12 AM -36.9830 174.8910 252° West 128 147 1,200 -800 Descending FlightAware ADS-B
Sun 08:12:37 AM -36.9880 174.8730 251° West 128 147 900 -600 Descending FlightAware ADS-B
Sun 08:12:52 AM -36.9910 174.8630 249° West 129 148 800 -600 Descending FlightAware ADS-B
Sun 08:13:17 AM -36.9960 174.8450 251° West 127 146 500 -750 Descending FlightAware ADS-B
Sun 08:13:32 AM -36.9990 174.8350 249° West 127 146 300 -800 Descending FlightAware ADS-B
Sun 08:14:02 AM -37.0040 174.8140 253° West 128 147 -600 Descending FlightAware ADS-B
Sun 08:14:32 AM -37.0100 174.7930 250° West 128 147  Level FlightAware ADS-B
Sun 08:17:00 AM -37.0081 174.7917 331° Northwest  Level Estimated

Login

Don't have an account? Register now (free) for customized features, flight alerts, and more!